NOZ2005 ENGM-EVRA
Flight info
| Callsign | NOZ2005 |
|---|---|
| Flight time | 1h 14m |
| Altitude | 37000 |
| Route | MASEV Z183 LEGPO DCT RASEL Y130 LAPSA |
| Aircraft | B738/M-SDE2E3FGHIRWXY/LB1 |
Departure
| Time | 2026-05-01 08:05 |
|---|---|
| Airport | Oslo-Gardermoen International Airport (ENGM) |
Arrival
| Time | 2026-05-01 09:20 |
|---|---|
| Airport | Riga International Airport (EVRA) |
| Time | Latitude | Longitude | Altitude | Speed | Heading |
|---|---|---|---|---|---|
| 2026-05-01 07:41 | 60.19598 | 11.09904 | 679 ft | 0 kts | 105° |
| 2026-05-01 07:57 | 60.19602 | 11.09874 | 679 ft | 4 kts | 105° |
| 2026-05-01 07:57 | 60.19612 | 11.09776 | 674 ft | 3 kts | 89° |
| 2026-05-01 07:58 | 60.19609 | 11.09718 | 673 ft | 2 kts | 82° |
| 2026-05-01 07:58 | 60.19608 | 11.09704 | 673 ft | 0 kts | 82° |
| 2026-05-01 07:59 | 60.19608 | 11.09705 | 673 ft | 1 kts | 82° |
| 2026-05-01 08:00 | 60.19843 | 11.09930 | 680 ft | 19 kts | 16° |
| 2026-05-01 08:01 | 60.19894 | 11.10566 | 680 ft | 18 kts | 105° |
| 2026-05-01 08:01 | 60.19861 | 11.10798 | 683 ft | 17 kts | 106° |
| 2026-05-01 08:01 | 60.19828 | 11.11023 | 685 ft | 16 kts | 106° |
| 2026-05-01 08:02 | 60.19780 | 11.11444 | 685 ft | 15 kts | 63° |
| 2026-05-01 08:02 | 60.19869 | 11.11536 | 688 ft | 15 kts | 15° |
| 2026-05-01 08:03 | 60.20055 | 11.11644 | 684 ft | 13 kts | 15° |
| 2026-05-01 08:03 | 60.20142 | 11.11698 | 687 ft | 13 kts | 28° |
| 2026-05-01 08:03 | 60.20145 | 11.12018 | 688 ft | 12 kts | 105° |
| 2026-05-01 08:04 | 60.20030 | 11.12189 | 687 ft | 12 kts | 194° |
| 2026-05-01 08:04 | 60.19704 | 11.12002 | 688 ft | 83 kts | 196° |
| 2026-05-01 08:05 | 60.17840 | 11.10897 | 1203 ft | 162 kts | 196° |
| 2026-05-01 08:05 | 60.16743 | 11.10285 | 2116 ft | 169 kts | 198° |
| 2026-05-01 08:05 | 60.15522 | 11.09606 | 2522 ft | 198 kts | 198° |
| 2026-05-01 08:06 | 60.12435 | 11.10376 | 3144 ft | 257 kts | 155° |
| 2026-05-01 08:06 | 60.09776 | 11.15759 | 4520 ft | 278 kts | 135° |
| 2026-05-01 08:07 | 60.07621 | 11.22268 | 6125 ft | 293 kts | 100° |
| 2026-05-01 08:07 | 60.08802 | 11.29813 | 7631 ft | 296 kts | 43° |
| 2026-05-01 08:08 | 60.10288 | 11.32685 | 8397 ft | 298 kts | 40° |
| 2026-05-01 08:08 | 60.13358 | 11.38459 | 9886 ft | 307 kts | 40° |
| 2026-05-01 08:09 | 60.16537 | 11.44588 | 10798 ft | 336 kts | 41° |
| 2026-05-01 08:09 | 60.18152 | 11.48113 | 11010 ft | 358 kts | 47° |
| 2026-05-01 08:09 | 60.19739 | 11.52075 | 11512 ft | 368 kts | 49° |
| 2026-05-01 08:10 | 60.22932 | 11.60170 | 12898 ft | 376 kts | 48° |
| 2026-05-01 08:10 | 60.26273 | 11.68557 | 14284 ft | 388 kts | 54° |
| 2026-05-01 08:11 | 60.27503 | 11.79162 | 15629 ft | 401 kts | 97° |
| 2026-05-01 08:11 | 60.26655 | 11.90357 | 16957 ft | 410 kts | 100° |
| 2026-05-01 08:12 | 60.25547 | 12.01766 | 18261 ft | 418 kts | 108° |
| 2026-05-01 08:12 | 60.24712 | 12.07396 | 18887 ft | 421 kts | 109° |
| 2026-05-01 08:12 | 60.22938 | 12.18711 | 20101 ft | 427 kts | 109° |
| 2026-05-01 08:13 | 60.22065 | 12.24452 | 20688 ft | 430 kts | 109° |
| 2026-05-01 08:13 | 60.21203 | 12.30243 | 21266 ft | 434 kts | 108° |
| 2026-05-01 08:13 | 60.19479 | 12.41980 | 22409 ft | 441 kts | 108° |
| 2026-05-01 08:14 | 60.18605 | 12.47902 | 22971 ft | 444 kts | 108° |
| 2026-05-01 08:14 | 60.17734 | 12.53875 | 23509 ft | 448 kts | 105° |
| 2026-05-01 08:14 | 60.17147 | 12.60062 | 23983 ft | 452 kts | 99° |
| 2026-05-01 08:14 | 60.16746 | 12.66349 | 24448 ft | 455 kts | 97° |
| 2026-05-01 08:15 | 60.16410 | 12.72595 | 24914 ft | 457 kts | 96° |
| 2026-05-01 08:15 | 60.15721 | 12.85332 | 25817 ft | 461 kts | 97° |
| 2026-05-01 08:15 | 60.15340 | 12.91742 | 26241 ft | 464 kts | 97° |
| 2026-05-01 08:16 | 60.14938 | 12.98175 | 26665 ft | 466 kts | 98° |
| 2026-05-01 08:16 | 60.14520 | 13.04642 | 27087 ft | 468 kts | 98° |
| 2026-05-01 08:16 | 60.14092 | 13.11132 | 27488 ft | 471 kts | 98° |
| 2026-05-01 08:16 | 60.13656 | 13.17656 | 27892 ft | 473 kts | 98° |
| 2026-05-01 08:17 | 60.13214 | 13.24213 | 28284 ft | 475 kts | 98° |
| 2026-05-01 08:17 | 60.12768 | 13.30803 | 28660 ft | 477 kts | 98° |
| 2026-05-01 08:17 | 60.12317 | 13.37407 | 29044 ft | 480 kts | 98° |
| 2026-05-01 08:17 | 60.11861 | 13.44068 | 29405 ft | 482 kts | 98° |
| 2026-05-01 08:18 | 60.11400 | 13.50738 | 29765 ft | 484 kts | 98° |
| 2026-05-01 08:18 | 60.10463 | 13.64164 | 30446 ft | 488 kts | 98° |
| 2026-05-01 08:19 | 60.09513 | 13.77573 | 30989 ft | 491 kts | 98° |
| 2026-05-01 08:19 | 60.09027 | 13.84355 | 31279 ft | 492 kts | 98° |
| 2026-05-01 08:19 | 60.08537 | 13.91139 | 31633 ft | 492 kts | 98° |
| 2026-05-01 08:19 | 60.08045 | 13.97906 | 32033 ft | 490 kts | 98° |
| 2026-05-01 08:20 | 60.07550 | 14.04653 | 32450 ft | 488 kts | 98° |
| 2026-05-01 08:20 | 60.07055 | 14.11372 | 32812 ft | 487 kts | 98° |
| 2026-05-01 08:20 | 60.06557 | 14.18073 | 33139 ft | 487 kts | 98° |
| 2026-05-01 08:20 | 60.06058 | 14.24762 | 33493 ft | 486 kts | 98° |
| 2026-05-01 08:21 | 60.05556 | 14.31439 | 33881 ft | 484 kts | 98° |
| 2026-05-01 08:21 | 60.05020 | 14.38082 | 34242 ft | 483 kts | 102° |
| 2026-05-01 08:21 | 60.04105 | 14.44540 | 34504 ft | 483 kts | 110° |
| 2026-05-01 08:21 | 60.02733 | 14.50652 | 34764 ft | 482 kts | 121° |
| 2026-05-01 08:22 | 60.01033 | 14.56406 | 35047 ft | 480 kts | 122° |
| 2026-05-01 08:22 | 59.99295 | 14.62096 | 35311 ft | 480 kts | 122° |
| 2026-05-01 08:22 | 59.97541 | 14.67789 | 35565 ft | 480 kts | 122° |
| 2026-05-01 08:22 | 59.95799 | 14.73456 | 35828 ft | 479 kts | 122° |
| 2026-05-01 08:23 | 59.94064 | 14.79136 | 36108 ft | 478 kts | 122° |
| 2026-05-01 08:23 | 59.92343 | 14.84799 | 36356 ft | 478 kts | 122° |
| 2026-05-01 08:23 | 59.90621 | 14.90478 | 36609 ft | 478 kts | 121° |
| 2026-05-01 08:23 | 59.88905 | 14.96145 | 36853 ft | 477 kts | 121° |
| 2026-05-01 08:24 | 59.87189 | 15.01801 | 37100 ft | 477 kts | 121° |
| 2026-05-01 08:24 | 59.85474 | 15.07446 | 37231 ft | 479 kts | 121° |
| 2026-05-01 08:24 | 59.83741 | 15.13134 | 37213 ft | 481 kts | 121° |
| 2026-05-01 08:25 | 59.80263 | 15.24502 | 37205 ft | 480 kts | 121° |
| 2026-05-01 08:25 | 59.77432 | 15.33712 | 37207 ft | 474 kts | 121° |
| 2026-05-01 08:26 | 59.73398 | 15.46767 | 37218 ft | 473 kts | 121° |
| 2026-05-01 08:26 | 59.70510 | 15.56071 | 37217 ft | 472 kts | 121° |
| 2026-05-01 08:27 | 59.67082 | 15.67066 | 37224 ft | 472 kts | 122° |
| 2026-05-01 08:27 | 59.63618 | 15.78122 | 37217 ft | 473 kts | 122° |
| 2026-05-01 08:28 | 59.60141 | 15.89169 | 37220 ft | 474 kts | 122° |
| 2026-05-01 08:28 | 59.56646 | 16.00220 | 37223 ft | 475 kts | 122° |
| 2026-05-01 08:29 | 59.53142 | 16.11248 | 37231 ft | 476 kts | 122° |
| 2026-05-01 08:29 | 59.49615 | 16.22295 | 37234 ft | 476 kts | 122° |
| 2026-05-01 08:30 | 59.46076 | 16.33326 | 37234 ft | 477 kts | 122° |
| 2026-05-01 08:30 | 59.42527 | 16.44338 | 37235 ft | 477 kts | 122° |
| 2026-05-01 08:31 | 59.38968 | 16.55331 | 37230 ft | 477 kts | 122° |
| 2026-05-01 08:31 | 59.35404 | 16.66284 | 37229 ft | 477 kts | 122° |
| 2026-05-01 08:32 | 59.31849 | 16.77160 | 37227 ft | 477 kts | 122° |
| 2026-05-01 08:32 | 59.28243 | 16.88140 | 37226 ft | 476 kts | 122° |
| 2026-05-01 08:33 | 59.24696 | 16.98894 | 37222 ft | 476 kts | 122° |
| 2026-05-01 08:33 | 59.21148 | 17.09598 | 37224 ft | 475 kts | 122° |
| 2026-05-01 08:34 | 59.17522 | 17.20489 | 37223 ft | 475 kts | 122° |
| 2026-05-01 08:34 | 59.13922 | 17.31254 | 37224 ft | 474 kts | 122° |
| 2026-05-01 08:35 | 59.10317 | 17.41983 | 37229 ft | 473 kts | 122° |
| 2026-05-01 08:35 | 59.06703 | 17.52689 | 37228 ft | 473 kts | 122° |
| 2026-05-01 08:36 | 59.03088 | 17.63349 | 37225 ft | 472 kts | 122° |
| 2026-05-01 08:36 | 58.99467 | 17.73981 | 37231 ft | 472 kts | 122° |
| 2026-05-01 08:37 | 58.95835 | 17.84596 | 37237 ft | 472 kts | 122° |
| 2026-05-01 08:37 | 58.92197 | 17.95182 | 37234 ft | 472 kts | 122° |
| 2026-05-01 08:38 | 58.88549 | 18.05748 | 37233 ft | 472 kts | 122° |
| 2026-05-01 08:38 | 58.84919 | 18.16217 | 37241 ft | 472 kts | 122° |
| 2026-05-01 08:39 | 58.81249 | 18.26754 | 37242 ft | 472 kts | 122° |
| 2026-05-01 08:39 | 58.77571 | 18.37264 | 37246 ft | 472 kts | 122° |
| 2026-05-01 08:40 | 58.72045 | 18.52972 | 37246 ft | 472 kts | 122° |
| 2026-05-01 08:40 | 58.68350 | 18.63416 | 37252 ft | 472 kts | 122° |
| 2026-05-01 08:41 | 58.64647 | 18.73839 | 37255 ft | 472 kts | 122° |
| 2026-05-01 08:41 | 58.60936 | 18.84237 | 37256 ft | 472 kts | 122° |
| 2026-05-01 08:42 | 58.57219 | 18.94606 | 37257 ft | 471 kts | 122° |
| 2026-05-01 08:42 | 58.53499 | 19.04940 | 37258 ft | 471 kts | 122° |
| 2026-05-01 08:43 | 58.49797 | 19.15177 | 37265 ft | 471 kts | 122° |
| 2026-05-01 08:43 | 58.46067 | 19.25451 | 37268 ft | 470 kts | 122° |
| 2026-05-01 08:44 | 58.42332 | 19.35689 | 37263 ft | 470 kts | 122° |
| 2026-05-01 08:44 | 58.38591 | 19.45905 | 37266 ft | 469 kts | 122° |
| 2026-05-01 08:45 | 58.34845 | 19.56088 | 37266 ft | 469 kts | 122° |
| 2026-05-01 08:45 | 58.31091 | 19.66250 | 37268 ft | 469 kts | 122° |
| 2026-05-01 08:46 | 58.27334 | 19.76377 | 37270 ft | 469 kts | 122° |
| 2026-05-01 08:46 | 58.23567 | 19.86488 | 37268 ft | 469 kts | 122° |
| 2026-05-01 08:47 | 58.19793 | 19.96576 | 37269 ft | 469 kts | 122° |
| 2026-05-01 08:47 | 58.16007 | 20.06652 | 37273 ft | 469 kts | 122° |
| 2026-05-01 08:48 | 58.12239 | 20.16641 | 37275 ft | 469 kts | 122° |
| 2026-05-01 08:48 | 58.08437 | 20.26677 | 37081 ft | 473 kts | 122° |
| 2026-05-01 08:49 | 58.06510 | 20.31754 | 36521 ft | 475 kts | 122° |
| 2026-05-01 08:49 | 58.04585 | 20.36808 | 35946 ft | 474 kts | 122° |
| 2026-05-01 08:49 | 58.02669 | 20.41867 | 35303 ft | 473 kts | 120° |
| 2026-05-01 08:49 | 58.00898 | 20.47082 | 34690 ft | 472 kts | 117° |
| 2026-05-01 08:50 | 57.99204 | 20.52370 | 34241 ft | 468 kts | 116° |
| 2026-05-01 08:50 | 57.97554 | 20.57614 | 33729 ft | 464 kts | 116° |
| 2026-05-01 08:50 | 57.95913 | 20.62815 | 33268 ft | 459 kts | 116° |
| 2026-05-01 08:50 | 57.94277 | 20.67949 | 32823 ft | 455 kts | 116° |
| 2026-05-01 08:51 | 57.92642 | 20.73029 | 32370 ft | 451 kts | 116° |
| 2026-05-01 08:51 | 57.91015 | 20.78053 | 31925 ft | 448 kts | 116° |
| 2026-05-01 08:51 | 57.89398 | 20.83029 | 31487 ft | 444 kts | 116° |
| 2026-05-01 08:51 | 57.87790 | 20.87968 | 31056 ft | 441 kts | 116° |
| 2026-05-01 08:52 | 57.86195 | 20.92860 | 30628 ft | 438 kts | 116° |
| 2026-05-01 08:52 | 57.84607 | 20.97715 | 30181 ft | 435 kts | 116° |
| 2026-05-01 08:52 | 57.83025 | 21.02539 | 29689 ft | 431 kts | 116° |
| 2026-05-01 08:52 | 57.81460 | 21.07300 | 29247 ft | 427 kts | 116° |
| 2026-05-01 08:53 | 57.79926 | 21.11956 | 28811 ft | 423 kts | 116° |
| 2026-05-01 08:53 | 57.78385 | 21.16632 | 28376 ft | 419 kts | 116° |
| 2026-05-01 08:53 | 57.76854 | 21.21270 | 27936 ft | 417 kts | 116° |
| 2026-05-01 08:53 | 57.75334 | 21.25870 | 27504 ft | 414 kts | 116° |
| 2026-05-01 08:54 | 57.73819 | 21.30446 | 27072 ft | 414 kts | 116° |
| 2026-05-01 08:54 | 57.72300 | 21.35030 | 26646 ft | 416 kts | 116° |
| 2026-05-01 08:54 | 57.70775 | 21.39621 | 26219 ft | 414 kts | 116° |
| 2026-05-01 08:54 | 57.69253 | 21.44183 | 25785 ft | 412 kts | 116° |
| 2026-05-01 08:55 | 57.67794 | 21.48754 | 25359 ft | 407 kts | 114° |
| 2026-05-01 08:55 | 57.66431 | 21.53364 | 24941 ft | 404 kts | 112° |
| 2026-05-01 08:55 | 57.65106 | 21.57979 | 24518 ft | 402 kts | 112° |
| 2026-05-01 08:55 | 57.63795 | 21.62570 | 24083 ft | 401 kts | 112° |
| 2026-05-01 08:56 | 57.62479 | 21.67154 | 23625 ft | 399 kts | 112° |
| 2026-05-01 08:56 | 57.61166 | 21.71694 | 23161 ft | 397 kts | 112° |
| 2026-05-01 08:56 | 57.59851 | 21.76206 | 22715 ft | 394 kts | 112° |
| 2026-05-01 08:56 | 57.58539 | 21.80683 | 22293 ft | 392 kts | 112° |
| 2026-05-01 08:57 | 57.57237 | 21.85111 | 21880 ft | 389 kts | 112° |
| 2026-05-01 08:57 | 57.55939 | 21.89513 | 21464 ft | 386 kts | 112° |
| 2026-05-01 08:57 | 57.54649 | 21.93882 | 21057 ft | 384 kts | 112° |
| 2026-05-01 08:57 | 57.53366 | 21.98220 | 20655 ft | 381 kts | 112° |
| 2026-05-01 08:58 | 57.52088 | 22.02532 | 20253 ft | 379 kts | 112° |
| 2026-05-01 08:58 | 57.50817 | 22.06815 | 19854 ft | 377 kts | 112° |
| 2026-05-01 08:58 | 57.49549 | 22.11077 | 19459 ft | 376 kts | 112° |
| 2026-05-01 08:58 | 57.48286 | 22.15318 | 19059 ft | 374 kts | 112° |
| 2026-05-01 08:59 | 57.47027 | 22.19537 | 18667 ft | 373 kts | 112° |
| 2026-05-01 08:59 | 57.45779 | 22.23712 | 18204 ft | 372 kts | 112° |
| 2026-05-01 08:59 | 57.44511 | 22.27946 | 17779 ft | 370 kts | 112° |
| 2026-05-01 08:59 | 57.43264 | 22.32105 | 17374 ft | 368 kts | 113° |
| 2026-05-01 09:00 | 57.42021 | 22.36241 | 16975 ft | 365 kts | 113° |
| 2026-05-01 09:00 | 57.40801 | 22.40286 | 16584 ft | 363 kts | 113° |
| 2026-05-01 09:00 | 57.39573 | 22.44351 | 16208 ft | 360 kts | 113° |
| 2026-05-01 09:00 | 57.38347 | 22.48393 | 15817 ft | 358 kts | 113° |
| 2026-05-01 09:01 | 57.37132 | 22.52400 | 15439 ft | 356 kts | 114° |
| 2026-05-01 09:01 | 57.35921 | 22.56382 | 15055 ft | 354 kts | 114° |
| 2026-05-01 09:01 | 57.34712 | 22.60350 | 14680 ft | 352 kts | 114° |
| 2026-05-01 09:01 | 57.33316 | 22.64099 | 14289 ft | 359 kts | 131° |
| 2026-05-01 09:02 | 57.31336 | 22.66934 | 13988 ft | 360 kts | 142° |
| 2026-05-01 09:02 | 57.29266 | 22.69530 | 13563 ft | 359 kts | 143° |
| 2026-05-01 09:02 | 57.27195 | 22.72093 | 13173 ft | 357 kts | 143° |
| 2026-05-01 09:02 | 57.25142 | 22.74652 | 12790 ft | 355 kts | 142° |
| 2026-05-01 09:03 | 57.23106 | 22.77211 | 12396 ft | 352 kts | 142° |
| 2026-05-01 09:03 | 57.21278 | 22.79521 | 12048 ft | 342 kts | 142° |
| 2026-05-01 09:03 | 57.19339 | 22.81980 | 11695 ft | 336 kts | 142° |
| 2026-05-01 09:03 | 57.17417 | 22.84419 | 11342 ft | 336 kts | 142° |
| 2026-05-01 09:04 | 57.15492 | 22.86859 | 10982 ft | 335 kts | 142° |
| 2026-05-01 09:04 | 57.13580 | 22.89277 | 10715 ft | 331 kts | 143° |
| 2026-05-01 09:04 | 57.11705 | 22.91643 | 10574 ft | 323 kts | 143° |
| 2026-05-01 09:04 | 57.09897 | 22.93923 | 10422 ft | 315 kts | 143° |
| 2026-05-01 09:05 | 57.08111 | 22.96174 | 10282 ft | 308 kts | 143° |
| 2026-05-01 09:05 | 57.06353 | 22.98385 | 9961 ft | 303 kts | 143° |
| 2026-05-01 09:05 | 57.04639 | 23.00538 | 9656 ft | 294 kts | 143° |
| 2026-05-01 09:05 | 57.02963 | 23.02645 | 9399 ft | 291 kts | 142° |
| 2026-05-01 09:06 | 57.01583 | 23.05260 | 9094 ft | 283 kts | 115° |
| 2026-05-01 09:06 | 57.00934 | 23.08572 | 8820 ft | 273 kts | 94° |
| 2026-05-01 09:06 | 57.00720 | 23.11996 | 8565 ft | 269 kts | 90° |
| 2026-05-01 09:06 | 57.00556 | 23.15415 | 8283 ft | 269 kts | 90° |
| 2026-05-01 09:07 | 57.00393 | 23.18832 | 8013 ft | 269 kts | 90° |
| 2026-05-01 09:07 | 57.00216 | 23.22253 | 7728 ft | 270 kts | 91° |
| 2026-05-01 09:07 | 57.00031 | 23.25669 | 7513 ft | 268 kts | 91° |
| 2026-05-01 09:07 | 56.99845 | 23.29002 | 7442 ft | 259 kts | 91° |
| 2026-05-01 09:08 | 56.99661 | 23.32261 | 7385 ft | 256 kts | 91° |
| 2026-05-01 09:08 | 56.99479 | 23.35520 | 7281 ft | 256 kts | 91° |
| 2026-05-01 09:08 | 56.99263 | 23.38734 | 7247 ft | 255 kts | 96° |
| 2026-05-01 09:08 | 56.98727 | 23.41887 | 6982 ft | 266 kts | 115° |
| 2026-05-01 09:09 | 56.97749 | 23.44381 | 6610 ft | 268 kts | 127° |
| 2026-05-01 09:09 | 56.96865 | 23.46230 | 6355 ft | 265 kts | 129° |
| 2026-05-01 09:09 | 56.95633 | 23.48738 | 6094 ft | 257 kts | 129° |
| 2026-05-01 09:09 | 56.94478 | 23.51123 | 5851 ft | 245 kts | 128° |
| 2026-05-01 09:10 | 56.93370 | 23.53464 | 5377 ft | 244 kts | 128° |
| 2026-05-01 09:10 | 56.92269 | 23.55830 | 5083 ft | 239 kts | 128° |
| 2026-05-01 09:10 | 56.91231 | 23.58085 | 4871 ft | 229 kts | 128° |
| 2026-05-01 09:10 | 56.90227 | 23.60274 | 4630 ft | 219 kts | 128° |
| 2026-05-01 09:11 | 56.89270 | 23.62359 | 4426 ft | 209 kts | 127° |
| 2026-05-01 09:11 | 56.88351 | 23.64387 | 4219 ft | 205 kts | 128° |
| 2026-05-01 09:11 | 56.87448 | 23.66377 | 4078 ft | 202 kts | 127° |
| 2026-05-01 09:11 | 56.86558 | 23.68352 | 3834 ft | 199 kts | 127° |
| 2026-05-01 09:12 | 56.85692 | 23.70263 | 3652 ft | 192 kts | 127° |
| 2026-05-01 09:12 | 56.84839 | 23.72133 | 3554 ft | 193 kts | 127° |
| 2026-05-01 09:12 | 56.83957 | 23.74028 | 3288 ft | 193 kts | 130° |
| 2026-05-01 09:12 | 56.83093 | 23.75918 | 3143 ft | 195 kts | 126° |
| 2026-05-01 09:13 | 56.82209 | 23.77804 | 3020 ft | 200 kts | 134° |
| 2026-05-01 09:13 | 56.81178 | 23.79472 | 2872 ft | 191 kts | 138° |
| 2026-05-01 09:13 | 56.80196 | 23.80982 | 2818 ft | 182 kts | 137° |
| 2026-05-01 09:13 | 56.79207 | 23.82498 | 2845 ft | 191 kts | 137° |
| 2026-05-01 09:14 | 56.78189 | 23.84083 | 2694 ft | 188 kts | 137° |
| 2026-05-01 09:14 | 56.77202 | 23.85641 | 2613 ft | 189 kts | 134° |
| 2026-05-01 09:14 | 56.76194 | 23.87172 | 2581 ft | 189 kts | 144° |
| 2026-05-01 09:14 | 56.75394 | 23.88997 | 2533 ft | 183 kts | 101° |
| 2026-05-01 09:15 | 56.75422 | 23.91233 | 2547 ft | 178 kts | 72° |
| 2026-05-01 09:15 | 56.76080 | 23.92948 | 2502 ft | 156 kts | 23° |
| 2026-05-01 09:15 | 56.77044 | 23.93578 | 2479 ft | 142 kts | 21° |
| 2026-05-01 09:15 | 56.77627 | 23.94108 | 2503 ft | 141 kts | 20° |
| 2026-05-01 09:16 | 56.78591 | 23.94523 | 2402 ft | 145 kts | 12° |
| 2026-05-01 09:16 | 56.79566 | 23.94945 | 2241 ft | 147 kts | 6° |
| 2026-05-01 09:16 | 56.80550 | 23.95155 | 2092 ft | 139 kts | 4° |
| 2026-05-01 09:17 | 56.82779 | 23.95543 | 1625 ft | 141 kts | 3° |
| 2026-05-01 09:17 | 56.83426 | 23.95642 | 1499 ft | 136 kts | 2° |
| 2026-05-01 09:17 | 56.85344 | 23.95959 | 1150 ft | 143 kts | 4° |
| 2026-05-01 09:18 | 56.86339 | 23.96127 | 928 ft | 141 kts | 3° |
| 2026-05-01 09:18 | 56.88056 | 23.96400 | 610 ft | 135 kts | 2° |
| 2026-05-01 09:19 | 56.89959 | 23.96725 | 219 ft | 131 kts | 4° |
| 2026-05-01 09:19 | 56.90842 | 23.96873 | 44 ft | 121 kts | 5° |
| 2026-05-01 09:19 | 56.91578 | 23.96984 | 44 ft | 86 kts | 5° |
| 2026-05-01 09:20 | 56.92247 | 23.97097 | 44 ft | 28 kts | 8° |
| 2026-05-01 09:20 | 56.92483 | 23.97276 | 40 ft | 17 kts | 35° |